Airfield :
LOGIN :

Register | Disclaimer

   EN    FR    IT 

 










Legend :    VFR   Marginal VFR   IFR   Intensive IFR   Very Intensive IFR
Visi :
Ceiling :
>= 8 km
>= 3000ft
5 to 8 km
1000 to 3000 ft
1500m to 5 km
500 to 1000 ft
800 to 1500m
200 to 500 ft
< 800m
< 200 ft
Symbols :   Thunderstorms  Fog  Heavy snow  Heavy precipitations  Wind > 20 kt
SIGMETs :     Misc.  Thunderstorms  Icing  Turbulence  Mountain Waves  Volcanic Ashes






- Airport Elevation : 313 ft
- IATA code : LEH


LFOH - Le Havre Octeville

CURRENT METAR :
  • 271030Z AUTO 31014KT 9999 -RA FEW010/// SCT026/// BKN039/// ///TCU 12/10 Q1005 TEMPO 29020G30KT 2000 SHRA

EXPIRED METARs :
  • 271000Z AUTO 30015KT 280V340 9999 FEW019/// SCT034/// BKN048/// //////TCU 14/09 Q1005 TEMPO 29020G30KT 2000 SHRA
  • 270930Z AUTO 31017KT 280V340 9999 FEW047/// SCT066/// BKN080/// //////TCU 14/08 Q1005 TEMPO 29020G30KT 2000 SHRA SCT016 BKN025CB BKN035
  • 270900Z AUTO 31019KT 9999 SCT035/// BKN058/// OVC076/// ///TCU 14/09 Q1005 TEMPO 29020G30KT 2000 SHRA SCT016 BKN025CB BKN035
  • 270830Z AUTO 32017KT 9999 -RA FEW012/// SCT027/// BKN039/// ///CB 12/09 Q1005 TEMPO 29020G30KT 2000 SHRA
  • 270800Z AUTO 29019KT 260V320 6000 1800 -RA FEW015/// SCT025/// BKN033/// ///CB 12/09 Q1005 TEMPO 29020G30KT 2000 SHRA

TAF AMD TAF LFOH
Valid from the 27 at 08:00 until the 28 at 06:00 UTC


270837Z 2708/2806 33016KT 9999 FEW035 BKN054
TEMPO 2708/2715 29020G30KT 2000 SHRA SCT016 BKN025CB BKN035
PROB30
TEMPO 2715/2718 26015G25KT 2000 SHRA SCT016 BKN020TCU BKN035
PROB40
TEMPO 2720/2801 33015G25KT 4000 RA BKN014
ATIS : +33 2 35 54 64 93



MET'MAP, your aeronautical weather chart ! - Copyright ORBIFLY December 2007 - Disclaimer

ORBIFLY MET'MAP TEAM :

Programming & Development : Alexandra Zaïnal
Original concept : Baudouin d'Aumeries
Technical & hardware support : Manuel Goepfert
Assistance : Marc-Olivier Méhu




SOURCES & CREDITS :

   NOAA